sensor_id;sensor_type;location;lat;lon;timestamp;temperature;humidity
26745;DHT22;14342;50.960;13.880;2023-08-01T00:00:46;22.60;99.90
26745;DHT22;14342;50.960;13.880;2023-08-01T00:01:46;22.50;99.90
26745;DHT22;14342;50.960;13.880;2023-08-01T00:02:48;22.50;99.90
26745;DHT22;14342;50.960;13.880;2023-08-01T00:03:49;22.60;99.90
26745;DHT22;14342;50.960;13.880;2023-08-01T00:04:50;22.50;99.90
26745;DHT22;14342;50.960;13.880;2023-08-01T00:05:51;22.40;99.90
26745;DHT22;14342;50.960;13.880;2023-08-01T00:06:55;22.30;99.90
26745;DHT22;14342;50.960;13.880;2023-08-01T00:07:55;22.40;99.90
26745;DHT22;14342;50.960;13.880;2023-08-01T00:08:57;22.40;99.90
26745;DHT22;14342;50.960;13.880;2023-08-01T00:09:58;22.40;99.90
26745;DHT22;14342;50.960;13.880;2023-08-01T00:10:59;22.40;99.90
26745;DHT22;14342;50.960;13.880;2023-08-01T00:12:00;22.40;99.90
26745;DHT22;14342;50.960;13.880;2023-08-01T00:13:02;22.40;99.90
26745;DHT22;14342;50.960;13.880;2023-08-01T00:14:02;22.40;99.90
26745;DHT22;14342;50.960;13.880;2023-08-01T00:15:04;22.40;99.90
26745;DHT22;14342;50.960;13.880;2023-08-01T00:16:06;22.40;99.90
26745;DHT22;14342;50.960;13.880;2023-08-01T00:17:08;22.40;99.90
26745;DHT22;14342;50.960;13.880;2023-08-01T00:18:09;22.40;99.90
26745;DHT22;14342;50.960;13.880;2023-08-01T00:19:09;22.40;99.90
26745;DHT22;14342;50.960;13.880;2023-08-01T00:20:12;22.40;99.90
26745;DHT22;14342;50.960;13.880;2023-08-01T00:21:13;22.40;99.90
26745;DHT22;14342;50.960;13.880;2023-08-01T00:22:14;22.30;99.90
26745;DHT22;14342;50.960;13.880;2023-08-01T00:23:15;22.30;99.90
26745;DHT22;14342;50.960;13.880;2023-08-01T00:24:17;22.30;99.90
26745;DHT22;14342;50.960;13.880;2023-08-01T00:25:17;22.20;99.90
26745;DHT22;14342;50.960;13.880;2023-08-01T00:26:19;22.20;99.90
26745;DHT22;14342;50.960;13.880;2023-08-01T00:27:20;22.20;99.90
26745;DHT22;14342;50.960;13.880;2023-08-01T00:28:21;22.10;99.90
26745;DHT22;14342;50.960;13.880;2023-08-01T00:29:23;22.10;99.90
26745;DHT22;14342;50.960;13.880;2023-08-01T00:30:24;22.10;99.90
26745;DHT22;14342;50.960;13.880;2023-08-01T00:31:27;22.10;99.90
26745;DHT22;14342;50.960;13.880;2023-08-01T00:32:27;22.00;99.90
26745;DHT22;14342;50.960;13.880;2023-08-01T00:33:29;21.90;99.90
26745;DHT22;14342;50.960;13.880;2023-08-01T00:34:29;22.00;99.90
26745;DHT22;14342;50.960;13.880;2023-08-01T00:35:31;21.90;99.90
26745;DHT22;14342;50.960;13.880;2023-08-01T00:36:32;21.90;99.90
26745;DHT22;14342;50.960;13.880;2023-08-01T00:37:33;21.90;99.90
26745;DHT22;14342;50.960;13.880;2023-08-01T00:38:34;21.90;99.90
26745;DHT22;14342;50.960;13.880;2023-08-01T00:39:36;22.00;99.90
26745;DHT22;14342;50.960;13.880;2023-08-01T00:40:36;21.90;99.90
26745;DHT22;14342;50.960;13.880;2023-08-01T00:41:38;21.90;99.90
26745;DHT22;14342;50.960;13.880;2023-08-01T00:42:38;21.90;99.90
26745;DHT22;14342;50.960;13.880;2023-08-01T00:43:40;21.80;99.90
26745;DHT22;14342;50.960;13.880;2023-08-01T00:44:41;21.80;99.90
26745;DHT22;14342;50.960;13.880;2023-08-01T00:45:42;22.00;99.90
26745;DHT22;14342;50.960;13.880;2023-08-01T00:46:44;21.80;99.90
26745;DHT22;14342;50.960;13.880;2023-08-01T00:47:46;21.80;99.90
26745;DHT22;14342;50.960;13.880;2023-08-01T00:48:47;21.80;99.90
26745;DHT22;14342;50.960;13.880;2023-08-01T00:49:48;21.80;99.90
26745;DHT22;14342;50.960;13.880;2023-08-01T00:50:49;21.90;99.90
26745;DHT22;14342;50.960;13.880;2023-08-01T00:51:50;21.70;99.90
26745;DHT22;14342;50.960;13.880;2023-08-01T00:52:52;21.70;99.90
26745;DHT22;14342;50.960;13.880;2023-08-01T00:53:53;21.70;99.90
26745;DHT22;14342;50.960;13.880;2023-08-01T00:54:54;21.70;99.90
26745;DHT22;14342;50.960;13.880;2023-08-01T00:55:55;21.70;99.90
26745;DHT22;14342;50.960;13.880;2023-08-01T00:56:56;21.80;99.90
26745;DHT22;14342;50.960;13.880;2023-08-01T00:57:58;21.80;99.90
26745;DHT22;14342;50.960;13.880;2023-08-01T00:58:59;21.80;99.90
26745;DHT22;14342;50.960;13.880;2023-08-01T01:00:01;21.80;99.90
26745;DHT22;14342;50.960;13.880;2023-08-01T01:01:02;21.70;99.90
26745;DHT22;14342;50.960;13.880;2023-08-01T01:02:06;21.70;99.90
26745;DHT22;14342;50.960;13.880;2023-08-01T01:03:06;21.80;99.90
26745;DHT22;14342;50.960;13.880;2023-08-01T01:04:08;21.70;99.90
26745;DHT22;14342;50.960;13.880;2023-08-01T01:05:08;21.70;99.90
26745;DHT22;14342;50.960;13.880;2023-08-01T01:06:11;21.70;99.90
26745;DHT22;14342;50.960;13.880;2023-08-01T01:07:16;21.70;99.90
26745;DHT22;14342;50.960;13.880;2023-08-01T01:08:17;21.60;99.90
26745;DHT22;14342;50.960;13.880;2023-08-01T01:09:19;21.60;99.90
26745;DHT22;14342;50.960;13.880;2023-08-01T01:10:20;21.60;99.90
26745;DHT22;14342;50.960;13.880;2023-08-01T01:11:22;21.60;99.90
26745;DHT22;14342;50.960;13.880;2023-08-01T01:12:22;21.60;99.90
26745;DHT22;14342;50.960;13.880;2023-08-01T01:13:24;21.60;99.90
26745;DHT22;14342;50.960;13.880;2023-08-01T01:14:25;21.60;99.90
26745;DHT22;14342;50.960;13.880;2023-08-01T01:15:27;21.60;99.90
26745;DHT22;14342;50.960;13.880;2023-08-01T01:16:27;21.70;99.90
26745;DHT22;14342;50.960;13.880;2023-08-01T01:17:30;21.60;99.90
26745;DHT22;14342;50.960;13.880;2023-08-01T01:18:31;21.70;99.90
26745;DHT22;14342;50.960;13.880;2023-08-01T01:19:32;21.70;99.90
26745;DHT22;14342;50.960;13.880;2023-08-01T01:20:35;21.70;99.90
26745;DHT22;14342;50.960;13.880;2023-08-01T01:21:37;21.70;99.90
26745;DHT22;14342;50.960;13.880;2023-08-01T01:22:38;21.90;99.90
26745;DHT22;14342;50.960;13.880;2023-08-01T01:23:39;21.70;99.90
26745;DHT22;14342;50.960;13.880;2023-08-01T01:24:41;21.70;99.90
26745;DHT22;14342;50.960;13.880;2023-08-01T01:25:42;21.70;99.90
26745;DHT22;14342;50.960;13.880;2023-08-01T01:26:44;21.70;99.90
26745;DHT22;14342;50.960;13.880;2023-08-01T01:27:45;21.70;99.90
26745;DHT22;14342;50.960;13.880;2023-08-01T01:28:47;21.70;99.90
26745;DHT22;14342;50.960;13.880;2023-08-01T01:29:48;21.60;99.90
26745;DHT22;14342;50.960;13.880;2023-08-01T01:30:50;21.60;99.90
26745;DHT22;14342;50.960;13.880;2023-08-01T01:31:53;21.50;99.90
26745;DHT22;14342;50.960;13.880;2023-08-01T01:32:55;21.50;99.90
26745;DHT22;14342;50.960;13.880;2023-08-01T01:33:56;21.50;99.90
26745;DHT22;14342;50.960;13.880;2023-08-01T01:34:58;21.50;99.90
26745;DHT22;14342;50.960;13.880;2023-08-01T01:36:01;21.50;99.90
26745;DHT22;14342;50.960;13.880;2023-08-01T01:37:03;21.50;99.90
26745;DHT22;14342;50.960;13.880;2023-08-01T01:38:04;21.50;99.90
26745;DHT22;14342;50.960;13.880;2023-08-01T01:39:05;21.50;99.90
26745;DHT22;14342;50.960;13.880;2023-08-01T01:40:06;21.50;99.90
26745;DHT22;14342;50.960;13.880;2023-08-01T01:41:08;21.60;99.90
26745;DHT22;14342;50.960;13.880;2023-08-01T01:42:09;21.50;99.90
26745;DHT22;14342;50.960;13.880;2023-08-01T01:43:13;21.60;99.90
26745;DHT22;14342;50.960;13.880;2023-08-01T01:44:14;21.50;99.90
26745;DHT22;14342;50.960;13.880;2023-08-01T01:45:15;21.50;99.90
26745;DHT22;14342;50.960;13.880;2023-08-01T01:46:16;21.50;99.90
26745;DHT22;14342;50.960;13.880;2023-08-01T01:47:17;21.50;99.90
26745;DHT22;14342;50.960;13.880;2023-08-01T01:48:18;21.40;99.90
26745;DHT22;14342;50.960;13.880;2023-08-01T01:49:19;21.40;99.90
26745;DHT22;14342;50.960;13.880;2023-08-01T01:50:21;21.40;99.90
26745;DHT22;14342;50.960;13.880;2023-08-01T01:51:26;21.40;99.90
26745;DHT22;14342;50.960;13.880;2023-08-01T01:52:28;21.30;99.90
26745;DHT22;14342;50.960;13.880;2023-08-01T01:53:28;21.30;99.90
26745;DHT22;14342;50.960;13.880;2023-08-01T01:54:30;21.30;99.90
26745;DHT22;14342;50.960;13.880;2023-08-01T01:55:31;21.30;99.90
26745;DHT22;14342;50.960;13.880;2023-08-01T01:56:32;21.20;99.90
26745;DHT22;14342;50.960;13.880;2023-08-01T01:57:34;21.30;99.90
26745;DHT22;14342;50.960;13.880;2023-08-01T01:58:36;21.30;99.90
26745;DHT22;14342;50.960;13.880;2023-08-01T01:59:37;21.40;99.90
26745;DHT22;14342;50.960;13.880;2023-08-01T02:00:38;21.50;99.90
26745;DHT22;14342;50.960;13.880;2023-08-01T02:01:39;21.50;99.90
26745;DHT22;14342;50.960;13.880;2023-08-01T02:02:41;21.60;99.90
26745;DHT22;14342;50.960;13.880;2023-08-01T02:03:41;21.50;99.90
26745;DHT22;14342;50.960;13.880;2023-08-01T02:04:45;21.50;99.90
26745;DHT22;14342;50.960;13.880;2023-08-01T02:05:46;21.50;99.90
26745;DHT22;14342;50.960;13.880;2023-08-01T02:06:49;21.50;99.90
26745;DHT22;14342;50.960;13.880;2023-08-01T02:07:49;21.50;99.90
26745;DHT22;14342;50.960;13.880;2023-08-01T02:08:51;21.50;99.90
26745;DHT22;14342;50.960;13.880;2023-08-01T02:09:52;21.50;99.90
26745;DHT22;14342;50.960;13.880;2023-08-01T02:10:53;21.50;99.90
26745;DHT22;14342;50.960;13.880;2023-08-01T02:11:55;21.40;99.90
26745;DHT22;14342;50.960;13.880;2023-08-01T02:12:57;21.40;99.90
26745;DHT22;14342;50.960;13.880;2023-08-01T02:13:57;21.40;99.90
26745;DHT22;14342;50.960;13.880;2023-08-01T02:14:59;21.40;99.90
26745;DHT22;14342;50.960;13.880;2023-08-01T02:15:59;21.40;99.90
26745;DHT22;14342;50.960;13.880;2023-08-01T02:17:01;21.40;99.90
26745;DHT22;14342;50.960;13.880;2023-08-01T02:18:02;21.40;99.90
26745;DHT22;14342;50.960;13.880;2023-08-01T02:19:03;21.40;99.90
26745;DHT22;14342;50.960;13.880;2023-08-01T02:20:04;21.40;99.90
26745;DHT22;14342;50.960;13.880;2023-08-01T02:21:06;21.30;99.90
26745;DHT22;14342;50.960;13.880;2023-08-01T02:22:08;21.20;99.90
26745;DHT22;14342;50.960;13.880;2023-08-01T02:23:10;21.10;99.90
26745;DHT22;14342;50.960;13.880;2023-08-01T02:24:10;20.90;99.90
26745;DHT22;14342;50.960;13.880;2023-08-01T02:25:12;20.70;99.90
26745;DHT22;14342;50.960;13.880;2023-08-01T02:26:13;20.60;99.90
26745;DHT22;14342;50.960;13.880;2023-08-01T02:27:15;20.60;99.90
26745;DHT22;14342;50.960;13.880;2023-08-01T02:28:15;20.60;99.90
26745;DHT22;14342;50.960;13.880;2023-08-01T02:29:16;20.60;99.90
26745;DHT22;14342;50.960;13.880;2023-08-01T02:30:18;20.60;99.90
26745;DHT22;14342;50.960;13.880;2023-08-01T02:31:18;20.60;99.90
26745;DHT22;14342;50.960;13.880;2023-08-01T02:32:20;20.60;99.90
26745;DHT22;14342;50.960;13.880;2023-08-01T02:33:20;20.70;99.90
26745;DHT22;14342;50.960;13.880;2023-08-01T02:34:22;20.70;99.90
26745;DHT22;14342;50.960;13.880;2023-08-01T02:35:23;20.80;99.90
26745;DHT22;14342;50.960;13.880;2023-08-01T02:36:24;20.70;99.90
26745;DHT22;14342;50.960;13.880;2023-08-01T02:37:26;20.60;99.90
26745;DHT22;14342;50.960;13.880;2023-08-01T02:38:28;20.60;99.90
26745;DHT22;14342;50.960;13.880;2023-08-01T02:39:28;20.50;99.90
26745;DHT22;14342;50.960;13.880;2023-08-01T02:40:30;20.50;99.90
26745;DHT22;14342;50.960;13.880;2023-08-01T02:41:31;20.50;99.90
26745;DHT22;14342;50.960;13.880;2023-08-01T02:42:32;20.40;99.90
26745;DHT22;14342;50.960;13.880;2023-08-01T02:43:33;20.40;99.90
26745;DHT22;14342;50.960;13.880;2023-08-01T02:44:36;20.40;99.90
26745;DHT22;14342;50.960;13.880;2023-08-01T02:45:37;20.40;99.90
26745;DHT22;14342;50.960;13.880;2023-08-01T02:46:38;20.40;99.90
26745;DHT22;14342;50.960;13.880;2023-08-01T02:47:39;20.40;99.90
26745;DHT22;14342;50.960;13.880;2023-08-01T02:48:40;20.40;99.90
26745;DHT22;14342;50.960;13.880;2023-08-01T02:49:41;20.40;99.90
26745;DHT22;14342;50.960;13.880;2023-08-01T02:50:43;20.30;99.90
26745;DHT22;14342;50.960;13.880;2023-08-01T02:51:43;20.40;99.90
26745;DHT22;14342;50.960;13.880;2023-08-01T02:52:46;20.40;99.90
26745;DHT22;14342;50.960;13.880;2023-08-01T02:53:47;20.40;99.90
26745;DHT22;14342;50.960;13.880;2023-08-01T02:54:47;20.50;99.90
26745;DHT22;14342;50.960;13.880;2023-08-01T02:55:49;20.50;99.90
26745;DHT22;14342;50.960;13.880;2023-08-01T02:56:50;20.50;99.90
26745;DHT22;14342;50.960;13.880;2023-08-01T02:57:51;20.60;99.90
26745;DHT22;14342;50.960;13.880;2023-08-01T02:58:52;20.70;99.90
26745;DHT22;14342;50.960;13.880;2023-08-01T02:59:55;20.70;99.90
26745;DHT22;14342;50.960;13.880;2023-08-01T03:00:58;20.70;99.90
26745;DHT22;14342;50.960;13.880;2023-08-01T03:01:59;20.60;99.90
26745;DHT22;14342;50.960;13.880;2023-08-01T03:03:00;20.30;99.90
26745;DHT22;14342;50.960;13.880;2023-08-01T03:04:01;20.70;99.90
26745;DHT22;14342;50.960;13.880;2023-08-01T03:05:02;20.70;99.90
26745;DHT22;14342;50.960;13.880;2023-08-01T03:06:05;20.70;99.90
26745;DHT22;14342;50.960;13.880;2023-08-01T03:07:06;20.70;99.90
26745;DHT22;14342;50.960;13.880;2023-08-01T03:08:08;20.80;99.90
26745;DHT22;14342;50.960;13.880;2023-08-01T03:09:10;20.80;99.90
26745;DHT22;14342;50.960;13.880;2023-08-01T03:10:11;20.70;99.90
26745;DHT22;14342;50.960;13.880;2023-08-01T03:11:12;20.70;99.90
26745;DHT22;14342;50.960;13.880;2023-08-01T03:12:13;20.70;99.90
26745;DHT22;14342;50.960;13.880;2023-08-01T03:13:14;20.70;99.90
26745;DHT22;14342;50.960;13.880;2023-08-01T03:14:15;20.60;99.90
26745;DHT22;14342;50.960;13.880;2023-08-01T03:15:17;20.40;99.90
26745;DHT22;14342;50.960;13.880;2023-08-01T03:16:18;20.40;99.90
26745;DHT22;14342;50.960;13.880;2023-08-01T03:17:19;20.40;99.90
26745;DHT22;14342;50.960;13.880;2023-08-01T03:18:20;20.40;99.90
26745;DHT22;14342;50.960;13.880;2023-08-01T03:19:21;20.50;99.90
26745;DHT22;14342;50.960;13.880;2023-08-01T03:20:24;20.50;99.90
26745;DHT22;14342;50.960;13.880;2023-08-01T03:21:25;20.50;99.90
26745;DHT22;14342;50.960;13.880;2023-08-01T03:22:26;20.50;99.90
26745;DHT22;14342;50.960;13.880;2023-08-01T03:23:28;20.50;99.90
26745;DHT22;14342;50.960;13.880;2023-08-01T03:24:30;20.60;99.90
26745;DHT22;14342;50.960;13.880;2023-08-01T03:25:31;20.60;99.90
26745;DHT22;14342;50.960;13.880;2023-08-01T03:26:33;20.50;99.90
26745;DHT22;14342;50.960;13.880;2023-08-01T03:27:33;20.50;99.90
26745;DHT22;14342;50.960;13.880;2023-08-01T03:28:35;20.60;99.90
26745;DHT22;14342;50.960;13.880;2023-08-01T03:30:36;20.50;99.90
26745;DHT22;14342;50.960;13.880;2023-08-01T03:31:37;20.50;99.90
26745;DHT22;14342;50.960;13.880;2023-08-01T03:32:39;20.40;99.90
26745;DHT22;14342;50.960;13.880;2023-08-01T03:33:41;20.70;99.90
26745;DHT22;14342;50.960;13.880;2023-08-01T03:34:41;20.30;99.90
26745;DHT22;14342;50.960;13.880;2023-08-01T03:35:43;20.10;99.90
26745;DHT22;14342;50.960;13.880;2023-08-01T03:36:43;20.40;99.90
26745;DHT22;14342;50.960;13.880;2023-08-01T03:37:45;20.30;99.90
26745;DHT22;14342;50.960;13.880;2023-08-01T03:38:47;20.30;99.90
26745;DHT22;14342;50.960;13.880;2023-08-01T03:39:48;20.30;99.90
26745;DHT22;14342;50.960;13.880;2023-08-01T03:40:49;20.20;99.90
26745;DHT22;14342;50.960;13.880;2023-08-01T03:41:51;20.10;99.90
26745;DHT22;14342;50.960;13.880;2023-08-01T03:42:51;20.10;99.90
26745;DHT22;14342;50.960;13.880;2023-08-01T03:43:53;20.10;99.90
26745;DHT22;14342;50.960;13.880;2023-08-01T03:44:53;20.10;99.90
26745;DHT22;14342;50.960;13.880;2023-08-01T03:45:54;20.10;99.90
26745;DHT22;14342;50.960;13.880;2023-08-01T03:46:55;20.10;99.90
26745;DHT22;14342;50.960;13.880;2023-08-01T03:47:56;20.10;99.90
26745;DHT22;14342;50.960;13.880;2023-08-01T03:48:58;20.00;99.90
26745;DHT22;14342;50.960;13.880;2023-08-01T03:49:58;20.00;99.90
26745;DHT22;14342;50.960;13.880;2023-08-01T03:51:00;20.00;99.90
26745;DHT22;14342;50.960;13.880;2023-08-01T03:52:01;20.10;99.90
26745;DHT22;14342;50.960;13.880;2023-08-01T03:53:02;20.10;99.90
26745;DHT22;14342;50.960;13.880;2023-08-01T03:54:04;20.10;99.90
26745;DHT22;14342;50.960;13.880;2023-08-01T03:55:06;20.10;99.90
26745;DHT22;14342;50.960;13.880;2023-08-01T03:56:07;20.20;99.90
26745;DHT22;14342;50.960;13.880;2023-08-01T03:57:08;20.20;99.90
26745;DHT22;14342;50.960;13.880;2023-08-01T03:58:09;20.20;99.90
26745;DHT22;14342;50.960;13.880;2023-08-01T03:59:11;20.20;99.90
26745;DHT22;14342;50.960;13.880;2023-08-01T04:00:12;20.20;99.90
26745;DHT22;14342;50.960;13.880;2023-08-01T04:01:14;20.30;99.90
26745;DHT22;14342;50.960;13.880;2023-08-01T04:02:15;20.40;99.90
26745;DHT22;14342;50.960;13.880;2023-08-01T04:03:16;20.40;99.90
26745;DHT22;14342;50.960;13.880;2023-08-01T04:04:17;20.40;99.90
26745;DHT22;14342;50.960;13.880;2023-08-01T04:05:20;20.40;99.90
26745;DHT22;14342;50.960;13.880;2023-08-01T04:06:21;20.40;99.90
26745;DHT22;14342;50.960;13.880;2023-08-01T04:07:22;20.50;99.90
26745;DHT22;14342;50.960;13.880;2023-08-01T04:08:23;20.50;99.90
26745;DHT22;14342;50.960;13.880;2023-08-01T04:09:26;20.50;99.90
26745;DHT22;14342;50.960;13.880;2023-08-01T04:10:27;20.60;99.90
26745;DHT22;14342;50.960;13.880;2023-08-01T04:11:27;20.60;99.90
26745;DHT22;14342;50.960;13.880;2023-08-01T04:12:31;20.60;99.90
26745;DHT22;14342;50.960;13.880;2023-08-01T04:13:32;20.60;99.90
26745;DHT22;14342;50.960;13.880;2023-08-01T04:14:34;20.80;99.90
26745;DHT22;14342;50.960;13.880;2023-08-01T04:15:34;20.60;99.90
26745;DHT22;14342;50.960;13.880;2023-08-01T04:16:36;20.60;99.90
26745;DHT22;14342;50.960;13.880;2023-08-01T04:17:36;20.80;99.90
26745;DHT22;14342;50.960;13.880;2023-08-01T04:18:37;20.60;99.90
26745;DHT22;14342;50.960;13.880;2023-08-01T04:19:39;20.60;99.90
26745;DHT22;14342;50.960;13.880;2023-08-01T04:20:39;20.60;99.90
26745;DHT22;14342;50.960;13.880;2023-08-01T04:21:41;20.50;99.90
26745;DHT22;14342;50.960;13.880;2023-08-01T04:22:41;20.50;99.90
26745;DHT22;14342;50.960;13.880;2023-08-01T04:23:43;20.50;99.90
26745;DHT22;14342;50.960;13.880;2023-08-01T04:24:45;20.50;99.90
26745;DHT22;14342;50.960;13.880;2023-08-01T04:25:47;20.50;99.90
26745;DHT22;14342;50.960;13.880;2023-08-01T04:26:47;20.50;99.90
26745;DHT22;14342;50.960;13.880;2023-08-01T04:27:49;20.50;99.90
26745;DHT22;14342;50.960;13.880;2023-08-01T04:28:49;20.50;99.90
26745;DHT22;14342;50.960;13.880;2023-08-01T04:29:51;20.40;99.90
26745;DHT22;14342;50.960;13.880;2023-08-01T04:30:52;20.40;99.90
26745;DHT22;14342;50.960;13.880;2023-08-01T04:31:53;20.40;99.90
26745;DHT22;14342;50.960;13.880;2023-08-01T04:32:54;20.40;99.90
26745;DHT22;14342;50.960;13.880;2023-08-01T04:33:55;20.40;99.90
26745;DHT22;14342;50.960;13.880;2023-08-01T04:34:56;20.40;99.90
26745;DHT22;14342;50.960;13.880;2023-08-01T04:35:58;20.30;99.90
26745;DHT22;14342;50.960;13.880;2023-08-01T04:36:58;20.20;99.90
26745;DHT22;14342;50.960;13.880;2023-08-01T04:38:00;20.20;99.90
26745;DHT22;14342;50.960;13.880;2023-08-01T04:39:00;20.20;99.90
26745;DHT22;14342;50.960;13.880;2023-08-01T04:40:03;20.10;99.90
26745;DHT22;14342;50.960;13.880;2023-08-01T04:41:04;20.20;99.90
26745;DHT22;14342;50.960;13.880;2023-08-01T04:42:05;20.10;99.90
26745;DHT22;14342;50.960;13.880;2023-08-01T04:43:07;20.10;99.90
26745;DHT22;14342;50.960;13.880;2023-08-01T04:44:08;20.10;99.90
26745;DHT22;14342;50.960;13.880;2023-08-01T04:45:08;20.10;99.90
26745;DHT22;14342;50.960;13.880;2023-08-01T04:46:10;20.10;99.90
26745;DHT22;14342;50.960;13.880;2023-08-01T04:47:11;20.10;99.90
26745;DHT22;14342;50.960;13.880;2023-08-01T04:48:12;20.10;99.90
26745;DHT22;14342;50.960;13.880;2023-08-01T04:49:13;20.10;99.90
26745;DHT22;14342;50.960;13.880;2023-08-01T04:50:14;20.10;99.90
26745;DHT22;14342;50.960;13.880;2023-08-01T04:51:15;20.10;99.90
26745;DHT22;14342;50.960;13.880;2023-08-01T04:52:16;20.10;99.90
26745;DHT22;14342;50.960;13.880;2023-08-01T04:53:17;20.20;99.90
26745;DHT22;14342;50.960;13.880;2023-08-01T04:54:19;20.20;99.90
26745;DHT22;14342;50.960;13.880;2023-08-01T04:55:21;20.20;99.90
26745;DHT22;14342;50.960;13.880;2023-08-01T04:56:22;20.20;99.90
26745;DHT22;14342;50.960;13.880;2023-08-01T04:57:23;20.20;99.90
26745;DHT22;14342;50.960;13.880;2023-08-01T04:58:23;20.10;99.90
26745;DHT22;14342;50.960;13.880;2023-08-01T04:59:25;20.10;99.90
26745;DHT22;14342;50.960;13.880;2023-08-01T05:00:26;20.10;99.90
26745;DHT22;14342;50.960;13.880;2023-08-01T05:01:27;20.20;99.90
26745;DHT22;14342;50.960;13.880;2023-08-01T05:02:28;20.10;99.90
26745;DHT22;14342;50.960;13.880;2023-08-01T05:03:28;20.00;99.90
26745;DHT22;14342;50.960;13.880;2023-08-01T05:04:30;20.00;99.90
26745;DHT22;14342;50.960;13.880;2023-08-01T05:05:30;20.00;99.90
26745;DHT22;14342;50.960;13.880;2023-08-01T05:06:32;20.00;99.90
26745;DHT22;14342;50.960;13.880;2023-08-01T05:07:33;20.00;99.90
26745;DHT22;14342;50.960;13.880;2023-08-01T05:08:34;20.00;99.90
26745;DHT22;14342;50.960;13.880;2023-08-01T05:09:35;20.00;99.90
26745;DHT22;14342;50.960;13.880;2023-08-01T05:10:38;20.00;99.90
26745;DHT22;14342;50.960;13.880;2023-08-01T05:11:38;20.10;99.90
26745;DHT22;14342;50.960;13.880;2023-08-01T05:12:40;20.10;99.90
26745;DHT22;14342;50.960;13.880;2023-08-01T05:13:40;20.20;99.90
26745;DHT22;14342;50.960;13.880;2023-08-01T05:14:42;20.10;99.90
26745;DHT22;14342;50.960;13.880;2023-08-01T05:15:43;20.30;99.90
26745;DHT22;14342;50.960;13.880;2023-08-01T05:16:45;20.10;99.90
26745;DHT22;14342;50.960;13.880;2023-08-01T05:17:46;20.20;99.90
26745;DHT22;14342;50.960;13.880;2023-08-01T05:18:47;20.30;99.90
26745;DHT22;14342;50.960;13.880;2023-08-01T05:19:48;20.20;99.90
26745;DHT22;14342;50.960;13.880;2023-08-01T05:20:49;20.30;99.90
26745;DHT22;14342;50.960;13.880;2023-08-01T05:21:50;20.20;99.90
26745;DHT22;14342;50.960;13.880;2023-08-01T05:22:51;20.30;99.90
26745;DHT22;14342;50.960;13.880;2023-08-01T05:23:52;20.40;99.90
26745;DHT22;14342;50.960;13.880;2023-08-01T05:24:53;20.30;99.90
26745;DHT22;14342;50.960;13.880;2023-08-01T05:25:56;20.30;99.90
26745;DHT22;14342;50.960;13.880;2023-08-01T05:26:56;20.40;99.90
26745;DHT22;14342;50.960;13.880;2023-08-01T05:27:58;20.50;99.90
26745;DHT22;14342;50.960;13.880;2023-08-01T05:28:59;20.40;99.90
26745;DHT22;14342;50.960;13.880;2023-08-01T05:30:00;20.50;99.90
26745;DHT22;14342;50.960;13.880;2023-08-01T05:31:01;20.40;99.90
26745;DHT22;14342;50.960;13.880;2023-08-01T05:32:02;20.40;99.90
26745;DHT22;14342;50.960;13.880;2023-08-01T05:33:03;20.40;99.90
26745;DHT22;14342;50.960;13.880;2023-08-01T05:34:05;20.40;99.90
26745;DHT22;14342;50.960;13.880;2023-08-01T05:35:06;20.30;99.90
26745;DHT22;14342;50.960;13.880;2023-08-01T05:36:07;20.30;99.90
26745;DHT22;14342;50.960;13.880;2023-08-01T05:37:08;20.40;99.90
26745;DHT22;14342;50.960;13.880;2023-08-01T05:38:09;20.20;99.90
26745;DHT22;14342;50.960;13.880;2023-08-01T05:39:10;20.30;99.90
26745;DHT22;14342;50.960;13.880;2023-08-01T05:40:12;20.20;99.90
26745;DHT22;14342;50.960;13.880;2023-08-01T05:41:14;20.20;99.90
26745;DHT22;14342;50.960;13.880;2023-08-01T05:42:15;20.40;99.90
26745;DHT22;14342;50.960;13.880;2023-08-01T05:43:16;20.10;99.90
26745;DHT22;14342;50.960;13.880;2023-08-01T05:44:18;20.10;99.90
26745;DHT22;14342;50.960;13.880;2023-08-01T05:45:18;20.10;99.90
26745;DHT22;14342;50.960;13.880;2023-08-01T05:46:20;20.10;99.90
26745;DHT22;14342;50.960;13.880;2023-08-01T05:47:21;20.10;99.90
26745;DHT22;14342;50.960;13.880;2023-08-01T05:48:23;20.00;99.90
26745;DHT22;14342;50.960;13.880;2023-08-01T05:49:24;20.00;99.90
26745;DHT22;14342;50.960;13.880;2023-08-01T05:50:25;20.20;99.90
26745;DHT22;14342;50.960;13.880;2023-08-01T05:51:26;20.30;99.90
26745;DHT22;14342;50.960;13.880;2023-08-01T05:52:27;20.30;99.90
26745;DHT22;14342;50.960;13.880;2023-08-01T05:53:28;20.10;99.90
26745;DHT22;14342;50.960;13.880;2023-08-01T05:54:30;20.10;99.90
26745;DHT22;14342;50.960;13.880;2023-08-01T05:55:32;20.00;99.90
26745;DHT22;14342;50.960;13.880;2023-08-01T05:56:34;20.00;99.90
26745;DHT22;14342;50.960;13.880;2023-08-01T05:57:34;19.90;99.90
26745;DHT22;14342;50.960;13.880;2023-08-01T05:58:36;20.00;99.90
26745;DHT22;14342;50.960;13.880;2023-08-01T05:59:36;20.20;99.90
26745;DHT22;14342;50.960;13.880;2023-08-01T06:00:38;19.90;99.90
26745;DHT22;14342;50.960;13.880;2023-08-01T06:01:39;19.80;99.90
26745;DHT22;14342;50.960;13.880;2023-08-01T06:02:40;20.10;99.90
26745;DHT22;14342;50.960;13.880;2023-08-01T06:03:41;19.70;99.90
26745;DHT22;14342;50.960;13.880;2023-08-01T06:04:42;19.70;99.90
26745;DHT22;14342;50.960;13.880;2023-08-01T06:05:43;19.70;99.90
26745;DHT22;14342;50.960;13.880;2023-08-01T06:06:45;19.80;99.90
26745;DHT22;14342;50.960;13.880;2023-08-01T06:07:45;19.80;99.90
26745;DHT22;14342;50.960;13.880;2023-08-01T06:08:47;19.80;99.90
26745;DHT22;14342;50.960;13.880;2023-08-01T06:09:47;19.90;99.90
26745;DHT22;14342;50.960;13.880;2023-08-01T06:10:49;19.90;99.90
26745;DHT22;14342;50.960;13.880;2023-08-01T06:11:51;19.90;99.90
26745;DHT22;14342;50.960;13.880;2023-08-01T06:12:53;19.80;99.90
26745;DHT22;14342;50.960;13.880;2023-08-01T06:13:53;19.90;99.90
26745;DHT22;14342;50.960;13.880;2023-08-01T06:14:55;19.80;99.90
26745;DHT22;14342;50.960;13.880;2023-08-01T06:15:55;19.90;99.90
26745;DHT22;14342;50.960;13.880;2023-08-01T06:16:57;19.90;99.90
26745;DHT22;14342;50.960;13.880;2023-08-01T06:17:58;19.90;99.90
26745;DHT22;14342;50.960;13.880;2023-08-01T06:18:58;19.90;99.90
26745;DHT22;14342;50.960;13.880;2023-08-01T06:20:00;19.90;99.90
26745;DHT22;14342;50.960;13.880;2023-08-01T06:21:04;20.20;99.90
26745;DHT22;14342;50.960;13.880;2023-08-01T06:22:05;19.90;99.90